Time;durP1;ratioP1;P1;durP2;ratioP2;P2;SDS_P1;SDS_P2;PMS_P1;PMS_P2;Temp;Humidity;BMP_temperature;BMP_pressure;BME280_temperature;BME280_humidity;BME280_pressure;Samples;Min_cycle;Max_cycle;Signal;HPM_P1;HPM_P2
2022/02/24 00:00:14;;;;;;;11.33;2.30;;;9.00;78.30;;;;;;5033344;28;20026;-79
2022/02/24 00:02:40;;;;;;;13.13;2.93;;;9.00;78.70;;;;;;5032656;28;20112;-79
2022/02/24 00:05:07;;;;;;;14.30;3.00;;;8.90;78.80;;;;;;5044804;28;20025;-78
2022/02/24 00:07:32;;;;;;;12.57;2.73;;;8.90;79.00;;;;;;5054108;28;20083;-80
2022/02/24 00:09:58;;;;;;;11.40;2.37;;;8.90;79.30;;;;;;5041776;28;20025;-80
2022/02/24 00:12:24;;;;;;;9.40;3.17;;;8.90;79.40;;;;;;5027269;28;20029;-79
2022/02/24 00:14:52;;;;;;;12.83;2.97;;;9.00;79.00;;;;;;5025907;28;20026;-78
2022/02/24 00:17:18;;;;;;;10.87;3.20;;;8.90;78.60;;;;;;5023634;28;20037;-79
2022/02/24 00:19:44;;;;;;;8.67;2.70;;;8.90;78.10;;;;;;5048895;28;20018;-79
2022/02/24 00:22:10;;;;;;;8.47;1.93;;;9.00;78.80;;;;;;5032450;28;20082;-81
2022/02/24 00:24:35;;;;;;;13.50;2.60;;;8.90;77.90;;;;;;5032881;28;20029;-79
2022/02/24 00:27:01;;;;;;;8.87;2.20;;;9.00;77.90;;;;;;5032488;28;20117;-78
2022/02/24 00:29:27;;;;;;;10.10;2.30;;;8.90;77.70;;;;;;5032744;28;20036;-81
2022/02/24 00:31:52;;;;;;;13.10;2.70;;;8.90;77.60;;;;;;5049163;28;20452;-80
2022/02/24 00:34:22;;;;;;;13.40;3.33;;;8.90;77.70;;;;;;5049329;28;20029;-79
2022/02/24 00:36:50;;;;;;;8.50;2.40;;;8.80;77.70;;;;;;5033348;28;20048;-78
2022/02/24 00:39:15;;;;;;;10.13;2.30;;;8.90;77.90;;;;;;5033583;28;20129;-78
2022/02/24 00:41:41;;;;;;;12.17;3.10;;;8.80;78.00;;;;;;5043991;28;20485;-79
2022/02/24 00:44:06;;;;;;;11.83;2.60;;;8.80;78.10;;;;;;5035825;28;20032;-78
2022/02/24 00:46:32;;;;;;;14.00;3.13;;;8.80;78.40;;;;;;5051873;28;20029;-78
2022/02/24 00:48:58;;;;;;;14.20;3.33;;;8.80;78.40;;;;;;5035472;28;20115;-79
2022/02/24 00:51:23;;;;;;;11.40;3.33;;;8.80;78.60;;;;;;5052409;28;20546;-81
2022/02/24 00:53:49;;;;;;;15.07;2.80;;;8.80;78.70;;;;;;5019233;28;20029;-79
2022/02/24 00:56:15;;;;;;;9.13;2.37;;;8.70;78.80;;;;;;5031330;28;20048;-79
2022/02/24 00:58:40;;;;;;;11.43;2.43;;;8.80;79.10;;;;;;5032020;28;20531;-79
2022/02/24 01:01:06;;;;;;;8.47;2.10;;;8.90;79.30;;;;;;5032277;28;20026;-79
2022/02/24 01:03:31;;;;;;;12.97;2.60;;;8.80;79.40;;;;;;5015932;28;20037;-79
2022/02/24 01:05:57;;;;;;;12.10;2.80;;;8.80;79.40;;;;;;5032108;28;20425;-80
2022/02/24 01:08:23;;;;;;;7.47;2.43;;;8.80;79.70;;;;;;5016036;28;20033;-80
2022/02/24 01:10:48;;;;;;;12.47;3.00;;;8.80;79.70;;;;;;5015527;28;20038;-79
2022/02/24 01:13:14;;;;;;;7.63;2.17;;;8.80;79.70;;;;;;5031836;28;20060;-79
2022/02/24 01:15:42;;;;;;;16.80;2.80;;;8.70;79.70;;;;;;5031955;28;20045;-79
2022/02/24 01:18:08;;;;;;;10.07;2.53;;;8.70;80.00;;;;;;5031865;28;20026;-79
2022/02/24 01:20:34;;;;;;;10.47;2.93;;;8.80;80.10;;;;;;5031879;28;20045;-79
2022/02/24 01:23:00;;;;;;;11.77;3.33;;;8.80;80.30;;;;;;5031846;28;20531;-80
2022/02/24 01:25:26;;;;;;;14.20;3.90;;;8.70;80.90;;;;;;5026247;28;20099;-79
2022/02/24 01:27:52;;;;;;;13.23;3.70;;;8.70;80.60;;;;;;5032064;28;20112;-79
2022/02/24 01:30:19;;;;;;;15.47;3.23;;;8.70;80.70;;;;;;5031705;28;20434;-79
2022/02/24 01:32:45;;;;;;;13.10;3.20;;;8.70;80.90;;;;;;5031654;28;20025;-80
2022/02/24 01:35:11;;;;;;;13.10;3.83;;;8.80;81.30;;;;;;5031519;28;20022;-78
2022/02/24 01:37:36;;;;;;;11.00;3.47;;;8.70;81.30;;;;;;5031735;28;20022;-78
2022/02/24 01:40:06;;;;;;;13.40;3.43;;;8.70;81.80;;;;;;5032018;28;20033;-78
2022/02/24 01:42:32;;;;;;;16.20;4.07;;;8.70;81.80;;;;;;5048198;28;20064;-80
2022/02/24 01:44:58;;;;;;;11.87;3.73;;;8.70;82.30;;;;;;5031788;28;20037;-78
2022/02/24 01:47:25;;;;;;;14.93;4.20;;;8.70;82.40;;;;;;5048805;28;20021;-79
2022/02/24 01:49:50;;;;;;;16.00;4.63;;;8.70;82.40;;;;;;5048068;28;20424;-81
2022/02/24 01:52:18;;;;;;;14.00;4.10;;;8.60;82.40;;;;;;5032838;28;20026;-80
2022/02/24 01:54:43;;;;;;;12.77;4.03;;;8.60;82.30;;;;;;5048189;28;20026;-80
2022/02/24 01:57:09;;;;;;;14.30;4.17;;;8.60;82.40;;;;;;5031684;28;20032;-79
2022/02/24 01:59:36;;;;;;;13.00;4.00;;;8.60;82.30;;;;;;5048687;28;20029;-80
2022/02/24 02:02:01;;;;;;;10.47;3.87;;;8.60;82.30;;;;;;5047980;28;20014;-79
2022/02/24 02:04:27;;;;;;;12.17;3.90;;;8.60;82.40;;;;;;5048044;28;20071;-81
2022/02/24 02:06:54;;;;;;;12.33;4.10;;;8.60;82.30;;;;;;5048413;28;20018;-79
2022/02/24 02:09:20;;;;;;;11.67;3.70;;;8.50;82.30;;;;;;5035807;28;20049;-80
2022/02/24 02:11:46;;;;;;;16.67;4.33;;;8.60;82.30;;;;;;5051540;28;20017;-79
2022/02/24 02:14:13;;;;;;;12.63;3.73;;;8.60;82.40;;;;;;5051506;28;20028;-78
2022/02/24 02:16:46;;;;;;;14.87;3.97;;;8.60;82.50;;;;;;5051359;28;20025;-78
2022/02/24 02:19:12;;;;;;;13.75;3.65;;;8.60;82.60;;;;;;5034754;28;20018;-79
2022/02/24 02:21:38;;;;;;;11.57;3.13;;;8.50;82.70;;;;;;5051389;28;20084;-80
2022/02/24 02:24:05;;;;;;;14.23;4.07;;;8.50;82.90;;;;;;5035963;28;20028;-78
2022/02/24 02:26:31;;;;;;;13.20;3.83;;;8.50;83.00;;;;;;5051321;28;20036;-78
2022/02/24 02:28:58;;;;;;;14.10;3.87;;;8.50;82.90;;;;;;5051231;28;20045;-80
2022/02/24 02:31:24;;;;;;;15.17;4.00;;;8.50;82.90;;;;;;5018380;28;20029;-79
2022/02/24 02:33:49;;;;;;;12.77;3.70;;;8.50;82.80;;;;;;5051122;28;20028;-78
2022/02/24 02:36:15;;;;;;;10.23;3.43;;;8.50;82.70;;;;;;5034334;28;20084;-80
2022/02/24 02:38:41;;;;;;;12.60;3.60;;;8.50;82.60;;;;;;5034556;28;20384;-77
2022/02/24 02:41:06;;;;;;;13.97;3.87;;;8.50;82.40;;;;;;5051032;28;20025;-78
2022/02/24 02:43:32;;;;;;;13.13;3.47;;;8.50;82.50;;;;;;5051474;28;20025;-79
2022/02/24 02:45:59;;;;;;;16.10;3.67;;;8.50;82.50;;;;;;5050963;28;20021;-80
2022/02/24 02:48:24;;;;;;;13.73;3.17;;;8.60;82.30;;;;;;5050808;28;20424;-79
2022/02/24 02:50:50;;;;;;;17.57;3.87;;;8.50;82.30;;;;;;5050686;28;20059;-80
2022/02/24 02:53:16;;;;;;;15.90;3.07;;;8.40;82.00;;;;;;5034180;28;20029;-80
2022/02/24 02:55:42;;;;;;;15.10;3.60;;;8.50;81.90;;;;;;5050644;28;20107;-79
2022/02/24 02:58:07;;;;;;;14.87;2.90;;;8.40;81.70;;;;;;5035679;28;20092;-79
2022/02/24 03:00:33;;;;;;;15.07;3.17;;;8.50;81.90;;;;;;5050894;28;20017;-80
2022/02/24 03:02:59;;;;;;;12.53;3.30;;;8.50;81.80;;;;;;5034384;28;20037;-79
2022/02/24 03:05:25;;;;;;;19.03;3.63;;;8.50;81.50;;;;;;5034011;28;20160;-79
2022/02/24 03:07:50;;;;;;;14.23;2.97;;;8.50;81.50;;;;;;5050642;28;20036;-78
2022/02/24 03:10:16;;;;;;;11.67;2.67;;;8.40;81.40;;;;;;5017909;28;20033;-79
2022/02/24 03:12:42;;;;;;;15.17;2.50;;;8.40;81.40;;;;;;5034049;28;20053;-78
2022/02/24 03:15:13;;;;;;;13.40;3.13;;;8.50;81.10;;;;;;5050316;28;20017;-78
2022/02/24 03:17:41;;;;;;;14.43;2.63;;;8.50;80.90;;;;;;5050331;28;20052;-81
2022/02/24 03:20:08;;;;;;;14.60;2.97;;;8.50;80.60;;;;;;5036602;28;20025;-80
2022/02/24 03:22:34;;;;;;;15.87;2.93;;;8.50;80.50;;;;;;5053872;28;20059;-80
2022/02/24 03:24:59;;;;;;;12.77;2.50;;;8.50;80.10;;;;;;5053548;28;20037;-79
2022/02/24 03:27:25;;;;;;;14.00;2.87;;;8.40;80.10;;;;;;5053714;28;20080;-78
2022/02/24 03:29:51;;;;;;;10.83;2.50;;;8.50;79.80;;;;;;5053450;28;20087;-78
2022/02/24 03:32:16;;;;;;;16.90;3.30;;;8.40;79.90;;;;;;5036698;28;20028;-79
2022/02/24 03:34:44;;;;;;;10.87;2.07;;;8.50;80.00;;;;;;5053480;28;20424;-79
2022/02/24 03:37:10;;;;;;;11.70;2.60;;;8.50;79.90;;;;;;5036873;28;20077;-79
2022/02/24 03:39:36;;;;;;;12.07;2.37;;;8.40;79.80;;;;;;5053326;28;20024;-79
2022/02/24 03:42:02;;;;;;;14.80;2.73;;;8.50;79.60;;;;;;5054646;28;20025;-78
2022/02/24 03:44:27;;;;;;;11.27;2.10;;;8.50;79.70;;;;;;5037086;28;20021;-79
2022/02/24 03:46:53;;;;;;;16.80;3.03;;;8.50;79.80;;;;;;5054421;28;20370;-80
2022/02/24 03:49:19;;;;;;;8.87;2.10;;;8.50;79.70;;;;;;5033071;28;20022;-78
2022/02/24 03:51:44;;;;;;;17.40;3.33;;;8.50;79.80;;;;;;5034370;28;20025;-78
2022/02/24 03:54:10;;;;;;;18.67;2.57;;;8.40;79.70;;;;;;5016614;28;20030;-79
2022/02/24 03:56:36;;;;;;;14.50;2.63;;;8.60;80.10;;;;;;5034391;28;20022;-78
2022/02/24 03:59:02;;;;;;;18.20;2.83;;;8.50;80.10;;;;;;5016582;28;20022;-79
2022/02/24 04:01:28;;;;;;;14.57;2.90;;;8.50;80.30;;;;;;5033147;28;20021;-79
2022/02/24 04:03:54;;;;;;;12.73;1.83;;;8.50;80.40;;;;;;5045885;28;20034;-79
2022/02/24 04:06:20;;;;;;;12.60;2.90;;;8.50;80.60;;;;;;5019666;28;20061;-79
2022/02/24 04:08:45;;;;;;;12.70;2.67;;;8.50;80.50;;;;;;5035910;28;20128;-79
2022/02/24 04:11:11;;;;;;;16.43;3.50;;;8.40;80.60;;;;;;5036105;28;20029;-80
2022/02/24 04:13:37;;;;;;;13.10;2.83;;;8.40;80.70;;;;;;5053820;28;20040;-78
2022/02/24 04:16:03;;;;;;;18.30;3.43;;;8.40;80.90;;;;;;5052724;28;20078;-79
2022/02/24 04:18:28;;;;;;;12.33;2.37;;;8.40;81.10;;;;;;5035907;28;20025;-78
2022/02/24 04:20:54;;;;;;;13.33;2.83;;;8.50;81.20;;;;;;5052523;28;20024;-83
2022/02/24 04:23:20;;;;;;;11.83;2.50;;;8.40;81.20;;;;;;5035808;28;20031;-79
2022/02/24 04:25:46;;;;;;;14.20;2.70;;;8.50;81.10;;;;;;5031965;28;20485;-80
2022/02/24 04:28:11;;;;;;;10.67;2.20;;;8.50;81.10;;;;;;5046041;28;20387;-79
2022/02/24 04:30:37;;;;;;;14.47;2.87;;;8.50;81.70;;;;;;5031511;28;20481;-77
2022/02/24 04:33:03;;;;;;;16.50;3.60;;;8.40;81.60;;;;;;5034493;28;20093;-79
2022/02/24 04:35:28;;;;;;;13.60;2.97;;;8.40;81.10;;;;;;5043495;28;20528;-80
2022/02/24 04:37:54;;;;;;;11.00;2.40;;;8.40;81.30;;;;;;5030066;28;20029;-78
2022/02/24 04:40:20;;;;;;;8.33;2.90;;;8.50;81.50;;;;;;5051464;28;20075;-78
2022/02/24 04:42:46;;;;;;;11.93;2.90;;;8.40;81.60;;;;;;5051494;28;20106;-79
2022/02/24 04:45:11;;;;;;;10.63;2.40;;;8.50;81.90;;;;;;5052117;28;20029;-79
2022/02/24 04:47:37;;;;;;;13.47;2.90;;;8.40;82.00;;;;;;5031960;28;20075;-79
2022/02/24 04:50:08;;;;;;;12.47;3.20;;;8.30;82.10;;;;;;5032024;28;20025;-80
2022/02/24 04:52:34;;;;;;;13.07;2.87;;;8.40;82.50;;;;;;5033349;28;20017;-82
2022/02/24 04:55:00;;;;;;;11.53;2.77;;;8.40;82.70;;;;;;5015762;28;20030;-79
2022/02/24 04:57:27;;;;;;;15.00;3.83;;;8.40;83.10;;;;;;5015667;28;20470;-79
2022/02/24 04:59:54;;;;;;;12.57;3.83;;;8.40;83.20;;;;;;5033292;28;20471;-78
2022/02/24 05:02:20;;;;;;;10.83;2.93;;;8.50;83.60;;;;;;5031970;28;20477;-79
2022/02/24 05:04:46;;;;;;;13.93;2.70;;;8.40;83.50;;;;;;4999419;28;20036;-80
2022/02/24 05:07:11;;;;;;;13.90;3.53;;;8.40;83.80;;;;;;5015650;28;20033;-77
2022/02/24 05:09:39;;;;;;;16.67;3.23;;;8.30;83.70;;;;;;5015620;28;20068;-80
2022/02/24 05:12:05;;;;;;;17.30;3.70;;;8.20;83.80;;;;;;5015859;28;20083;-79
2022/02/24 05:14:31;;;;;;;18.07;3.27;;;8.40;84.10;;;;;;5015421;28;20117;-78
2022/02/24 05:16:57;;;;;;;18.00;3.90;;;8.40;84.10;;;;;;5032304;28;20109;-79
2022/02/24 05:19:23;;;;;;;8.63;2.37;;;8.30;84.10;;;;;;5015696;28;20104;-79
2022/02/24 05:21:49;;;;;;;14.87;3.27;;;8.50;84.40;;;;;;5015403;28;20434;-79
2022/02/24 05:24:15;;;;;;;16.33;3.13;;;8.40;84.50;;;;;;5031865;28;20033;-79
2022/02/24 05:26:40;;;;;;;11.00;2.93;;;8.30;84.50;;;;;;5031829;28;20030;-79
2022/02/24 05:29:06;;;;;;;10.50;2.97;;;8.30;84.60;;;;;;5038423;28;20029;-80
2022/02/24 05:31:32;;;;;;;13.70;3.33;;;8.30;84.70;;;;;;5016750;28;20095;-79
2022/02/24 05:33:58;;;;;;;14.07;3.57;;;8.30;84.90;;;;;;5031691;28;20116;-78
2022/02/24 05:36:24;;;;;;;11.60;3.30;;;8.30;85.10;;;;;;5015104;28;20085;-81
2022/02/24 05:38:51;;;;;;;15.23;3.87;;;8.30;85.10;;;;;;5031497;28;20112;-80
2022/02/24 05:41:17;;;;;;;15.47;3.47;;;8.30;85.20;;;;;;5031658;28;20516;-80
2022/02/24 05:43:44;;;;;;;12.60;2.73;;;8.50;85.50;;;;;;5020833;28;20026;-79
2022/02/24 05:46:09;;;;;;;12.13;2.77;;;8.40;85.40;;;;;;5054968;28;20017;-80
2022/02/24 05:48:35;;;;;;;18.63;3.00;;;8.30;85.50;;;;;;5055312;28;20116;-77
2022/02/24 05:51:01;;;;;;;9.23;2.50;;;8.30;86.30;;;;;;5038605;28;20029;-79
2022/02/24 05:53:26;;;;;;;15.67;3.00;;;8.40;85.90;;;;;;5038843;28;20041;-80
2022/02/24 05:55:52;;;;;;;13.20;3.23;;;8.40;85.90;;;;;;5035614;28;20026;-78
2022/02/24 05:58:19;;;;;;;12.47;3.30;;;8.30;86.00;;;;;;5018741;28;20029;-78
2022/02/24 06:00:45;;;;;;;17.70;3.83;;;8.30;86.10;;;;;;5035463;28;20386;-80
2022/02/24 06:03:11;;;;;;;15.03;3.93;;;8.30;86.90;;;;;;5018577;28;20029;-79
2022/02/24 06:05:37;;;;;;;12.97;3.17;;;8.40;86.50;;;;;;5018690;28;20599;-78
2022/02/24 06:08:02;;;;;;;17.40;3.77;;;8.30;86.50;;;;;;5034996;28;20057;-78
2022/02/24 06:10:28;;;;;;;20.83;3.53;;;8.30;86.70;;;;;;5034896;28;20025;-79
2022/02/24 06:12:57;;;;;;;15.03;3.50;;;8.20;86.60;;;;;;5028766;28;20079;-81
2022/02/24 06:15:23;;;;;;;14.70;3.87;;;8.30;86.70;;;;;;5019003;28;20557;-79
2022/02/24 06:17:49;;;;;;;16.93;3.80;;;8.20;86.70;;;;;;5018287;28;20156;-79
2022/02/24 06:20:15;;;;;;;17.63;3.87;;;8.30;87.00;;;;;;5034830;28;20049;-80
2022/02/24 06:22:40;;;;;;;18.00;3.33;;;8.30;87.00;;;;;;5002298;28;20489;-80
2022/02/24 06:25:07;;;;;;;17.77;3.80;;;8.20;87.10;;;;;;5018242;28;20106;-80
2022/02/24 06:27:32;;;;;;;11.67;3.23;;;8.30;87.30;;;;;;5018149;28;20025;-79
2022/02/24 06:29:58;;;;;;;18.83;3.43;;;8.30;87.30;;;;;;5036031;28;20093;-79
2022/02/24 06:32:24;;;;;;;15.20;2.60;;;8.40;87.30;;;;;;5042688;28;20056;-80
2022/02/24 06:34:50;;;;;;;12.80;2.70;;;8.20;87.20;;;;;;5035116;28;20049;-79
2022/02/24 06:37:16;;;;;;;13.80;2.87;;;8.30;87.40;;;;;;5034228;28;20512;-80
2022/02/24 06:39:42;;;;;;;15.40;3.00;;;8.30;87.20;;;;;;5034723;28;20104;-80
2022/02/24 06:42:08;;;;;;;12.43;3.07;;;8.30;87.20;;;;;;5035736;28;20049;-79
2022/02/24 06:44:34;;;;;;;8.50;2.10;;;8.20;87.20;;;;;;5017569;28;20068;-78
2022/02/24 06:46:59;;;;;;;15.17;2.80;;;8.30;87.30;;;;;;5052124;28;20032;-79
2022/02/24 06:49:25;;;;;;;18.40;3.07;;;8.20;87.20;;;;;;5051999;28;20017;-80
2022/02/24 06:51:53;;;;;;;17.83;3.67;;;8.30;87.30;;;;;;5030756;28;20026;-80
2022/02/24 06:54:19;;;;;;;9.27;2.37;;;8.30;87.20;;;;;;5017922;28;20029;-80
2022/02/24 06:56:44;;;;;;;11.67;3.37;;;8.30;87.30;;;;;;5037440;28;20029;-80
2022/02/24 06:59:10;;;;;;;21.87;3.70;;;8.20;87.30;;;;;;5054434;28;20091;-80
2022/02/24 07:01:35;;;;;;;11.90;2.00;;;8.30;87.50;;;;;;5033784;28;20028;-79
2022/02/24 07:04:01;;;;;;;16.93;3.10;;;8.30;87.50;;;;;;5001848;28;20540;-80
2022/02/24 07:06:27;;;;;;;9.93;2.60;;;8.20;87.50;;;;;;5017249;28;20482;-81
2022/02/24 07:08:53;;;;;;;8.23;2.10;;;8.20;87.60;;;;;;5033894;28;20489;-82
2022/02/24 07:11:18;;;;;;;13.43;2.70;;;8.30;87.70;;;;;;5036813;28;20385;-81
2022/02/24 07:13:44;;;;;;;10.03;2.43;;;8.30;87.80;;;;;;5053756;28;20052;-79
2022/02/24 07:16:10;;;;;;;12.47;2.37;;;8.40;88.00;;;;;;5053188;28;20040;-80
2022/02/24 07:18:35;;;;;;;9.27;2.57;;;8.30;88.10;;;;;;5017402;28;20072;-80
2022/02/24 07:21:01;;;;;;;11.27;2.33;;;8.30;88.20;;;;;;5033436;28;20025;-80
2022/02/24 07:23:27;;;;;;;10.53;2.07;;;8.30;88.40;;;;;;5033024;28;20164;-82
2022/02/24 07:25:58;;;;;;;13.97;2.40;;;8.40;88.90;;;;;;5017054;28;20026;-82
2022/02/24 07:28:24;;;;;;;11.47;2.13;;;8.40;88.70;;;;;;5017731;28;20025;-79
2022/02/24 07:30:49;;;;;;;10.07;2.47;;;8.40;88.80;;;;;;5015625;28;20036;-81
2022/02/24 07:33:16;;;;;;;9.93;2.03;;;8.30;89.70;;;;;;5016848;28;20390;-80
2022/02/24 07:35:41;;;;;;;13.27;2.23;;;8.40;89.20;;;;;;5052970;28;20183;-83
2022/02/24 07:38:07;;;;;;;15.07;2.50;;;8.30;89.40;;;;;;5053166;28;20053;-81
2022/02/24 07:40:33;;;;;;;8.37;1.80;;;8.30;89.60;;;;;;5036723;28;20461;-81
2022/02/24 07:42:58;;;;;;;12.73;2.00;;;8.30;89.90;;;;;;5033514;28;20040;-82
2022/02/24 07:45:24;;;;;;;11.47;2.37;;;8.20;90.00;;;;;;5001109;28;20034;-80
2022/02/24 07:47:50;;;;;;;8.03;2.57;;;8.30;90.10;;;;;;5033176;28;20053;-81
2022/02/24 07:50:16;;;;;;;12.33;2.30;;;8.30;90.20;;;;;;5000248;28;20029;-80
2022/02/24 07:52:44;;;;;;;15.70;2.00;;;8.30;90.30;;;;;;5032956;28;20079;-79
2022/02/24 07:55:11;;;;;;;14.60;2.50;;;8.30;90.40;;;;;;5050130;28;20021;-80
2022/02/24 07:57:41;;;;;;;10.30;1.87;;;8.40;90.30;;;;;;5039470;28;20108;-80
2022/02/24 08:00:13;;;;;;;12.67;3.17;;;8.30;90.20;;;;;;5052857;28;20108;-80
2022/02/24 08:02:43;;;;;;;12.63;2.30;;;8.30;90.00;;;;;;5052788;28;20028;-82
2022/02/24 08:05:10;;;;;;;13.47;2.20;;;8.30;90.00;;;;;;5052787;28;20056;-81
2022/02/24 08:07:36;;;;;;;9.77;1.63;;;8.30;90.00;;;;;;5052984;28;20075;-82
2022/02/24 08:10:02;;;;;;;10.87;2.00;;;8.40;90.00;;;;;;5052610;28;20018;-81
2022/02/24 08:12:39;;;;;;;13.13;1.73;;;8.40;90.00;;;;;;5036067;28;20067;-80
2022/02/24 08:15:19;;;;;;;7.30;1.27;;;8.30;90.00;;;;;;5019656;28;20381;-80
2022/02/24 08:17:44;;;;;;;13.43;2.53;;;8.40;90.20;;;;;;5049004;28;20045;-80
2022/02/24 08:20:12;;;;;;;9.30;1.57;;;8.50;90.30;;;;;;5048964;28;20053;-79
2022/02/24 08:22:43;;;;;;;11.50;1.50;;;8.50;90.50;;;;;;5048943;28;20085;-78
2022/02/24 08:25:12;;;;;;;12.00;1.90;;;8.50;90.50;;;;;;5049066;28;20033;-79
2022/02/24 08:27:39;;;;;;;12.00;1.93;;;8.50;90.40;;;;;;5051871;28;20097;-79
2022/02/24 08:30:08;;;;;;;6.90;1.70;;;8.40;90.20;;;;;;5036783;28;20026;-79
2022/02/24 08:32:33;;;;;;;9.63;1.93;;;8.40;90.40;;;;;;5047149;28;20021;-80
2022/02/24 08:35:01;;;;;;;15.77;2.47;;;8.50;90.60;;;;;;5019823;28;20079;-79
2022/02/24 08:37:27;;;;;;;9.77;1.67;;;8.50;90.80;;;;;;5052240;28;20128;-79
2022/02/24 08:39:54;;;;;;;17.50;2.00;;;8.40;90.30;;;;;;5052269;28;20035;-77
2022/02/24 08:42:22;;;;;;;9.10;2.10;;;8.50;90.30;;;;;;5052091;28;20035;-79
2022/02/24 08:44:49;;;;;;;12.43;2.90;;;8.60;89.80;;;;;;5052682;28;20029;-82
2022/02/24 08:47:15;;;;;;;11.60;1.50;;;8.60;89.70;;;;;;5035697;28;20032;-81
2022/02/24 08:49:40;;;;;;;10.17;2.13;;;8.60;89.60;;;;;;5035608;28;20029;-80
2022/02/24 08:52:07;;;;;;;10.97;2.13;;;8.70;89.80;;;;;;5035393;28;20381;-82
2022/02/24 08:54:33;;;;;;;10.00;1.60;;;8.80;88.80;;;;;;5035462;28;20095;-81
2022/02/24 08:57:02;;;;;;;13.03;2.37;;;8.80;88.50;;;;;;5049611;28;20021;-80
2022/02/24 08:59:29;;;;;;;10.80;1.60;;;8.90;88.20;;;;;;5032174;28;20478;-82
2022/02/24 09:01:54;;;;;;;7.97;2.07;;;9.00;87.70;;;;;;5032096;28;20450;-80
2022/02/24 09:04:20;;;;;;;8.57;1.93;;;9.00;87.50;;;;;;5015925;28;20034;-81
2022/02/24 09:06:46;;;;;;;11.23;1.80;;;9.00;86.40;;;;;;5015590;28;20057;-80
2022/02/24 09:09:12;;;;;;;12.43;1.83;;;9.00;86.50;;;;;;5032231;28;20045;-81
2022/02/24 09:11:38;;;;;;;11.70;1.60;;;9.10;86.50;;;;;;5031949;28;20026;-86
2022/02/24 09:14:04;;;;;;;11.57;1.80;;;9.10;84.60;;;;;;5015535;28;20508;-82
2022/02/24 09:16:30;;;;;;;10.03;2.07;;;9.10;84.60;;;;;;5032420;28;20030;-80
2022/02/24 09:18:55;;;;;;;9.63;1.77;;;9.20;84.40;;;;;;5035811;28;20018;-81
2022/02/24 09:21:21;;;;;;;10.53;1.77;;;9.20;84.50;;;;;;5035849;28;20029;-82
2022/02/24 09:23:47;;;;;;;8.27;1.80;;;9.20;84.70;;;;;;5019976;28;20481;-80
2022/02/24 09:26:12;;;;;;;10.17;1.53;;;9.20;83.70;;;;;;5037134;28;20052;-80
2022/02/24 09:28:38;;;;;;;10.97;1.60;;;9.20;83.30;;;;;;5039684;28;20059;-81
2022/02/24 09:31:04;;;;;;;8.07;1.53;;;9.30;82.90;;;;;;5037033;28;20059;-81
2022/02/24 09:33:30;;;;;;;12.67;1.53;;;9.30;82.60;;;;;;5035975;28;20083;-81
2022/02/24 09:35:56;;;;;;;9.90;1.40;;;9.40;83.30;;;;;;5036050;28;20132;-80
2022/02/24 09:38:22;;;;;;;8.00;1.23;;;9.40;83.20;;;;;;5035868;28;20075;-81
2022/02/24 09:40:51;;;;;;;12.37;1.70;;;9.50;82.80;;;;;;5036995;28;20028;-82
2022/02/24 09:43:19;;;;;;;10.80;1.70;;;9.50;82.90;;;;;;5020205;28;20125;-81
2022/02/24 09:45:49;;;;;;;13.87;1.47;;;9.50;81.90;;;;;;5055691;28;20029;-81
2022/02/24 09:48:20;;;;;;;8.80;1.60;;;9.50;81.90;;;;;;5055600;28;20021;-81
2022/02/24 09:50:52;;;;;;;16.40;1.93;;;9.50;81.50;;;;;;5039572;28;20029;-82
2022/02/24 09:53:19;;;;;;;9.43;1.77;;;9.50;81.10;;;;;;5055509;28;20055;-85
2022/02/24 09:55:46;;;;;;;9.90;1.60;;;9.50;80.50;;;;;;5028857;28;20037;-82
2022/02/24 09:58:11;;;;;;;9.10;1.30;;;9.60;81.10;;;;;;5035699;28;20024;-82
2022/02/24 10:00:38;;;;;;;10.90;1.50;;;9.70;80.80;;;;;;5035354;28;20025;-82
2022/02/24 10:03:44;;;;;;;7.73;1.53;;;9.70;81.20;;;;;;5035331;28;20041;-83
2022/02/24 10:06:11;;;;;;;8.63;1.30;;;9.80;80.50;;;;;;5035405;28;20029;-82
2022/02/24 10:08:45;;;;;;;9.03;1.23;;;10.00;80.30;;;;;;5035153;28;20030;-82
2022/02/24 10:11:22;;;;;;;9.90;1.63;;;10.10;80.00;;;;;;5035148;28;20112;-81
2022/02/24 10:14:04;;;;;;;10.93;2.07;;;10.10;78.90;;;;;;5035666;28;20079;-81
2022/02/24 10:16:31;;;;;;;8.87;1.87;;;10.10;78.00;;;;;;5035582;28;20052;-81
2022/02/24 10:18:57;;;;;;;10.20;1.40;;;10.10;77.70;;;;;;5035333;28;20449;-81
2022/02/24 10:21:23;;;;;;;8.97;1.47;;;10.10;78.60;;;;;;5035465;28;20025;-81
2022/02/24 10:23:51;;;;;;;10.27;1.73;;;10.20;78.60;;;;;;5034036;28;20029;-84
2022/02/24 10:26:18;;;;;;;8.23;1.40;;;10.40;78.90;;;;;;5035156;28;20117;-82
2022/02/24 10:28:50;;;;;;;7.97;1.80;;;10.60;78.70;;;;;;5033997;28;20473;-81
2022/02/24 10:31:19;;;;;;;9.73;1.63;;;11.00;77.00;;;;;;5034984;28;20048;-81
2022/02/24 10:33:50;;;;;;;10.43;1.75;;;11.20;76.20;;;;;;5035094;28;20034;-81
2022/02/24 10:36:24;;;;;;;13.35;1.73;;;11.40;76.20;;;;;;5026764;28;20045;-81
2022/02/24 10:39:03;;;;;;;10.07;1.02;;;11.70;76.20;;;;;;5051292;28;20083;-82
2022/02/24 10:41:34;;;;;;;6.90;1.00;;;12.30;74.30;;;;;;5043561;28;20017;-80
2022/02/24 10:44:12;;;;;;;7.38;1.10;;;12.90;73.50;;;;;;5034786;28;20497;-82
2022/02/24 10:46:39;;;;;;;7.57;1.20;;;13.40;71.60;;;;;;5035265;28;20033;-84
2022/02/24 10:49:04;;;;;;;7.45;1.10;;;13.70;69.70;;;;;;5049365;28;20048;-86
2022/02/24 10:51:33;;;;;;;6.38;1.60;;;13.90;67.90;;;;;;5054792;28;20025;-81
2022/02/24 10:54:07;;;;;;;8.68;1.13;;;14.00;67.10;;;;;;5054197;28;20049;-80
2022/02/24 10:56:38;;;;;;;6.28;1.10;;;14.40;67.50;;;;;;5056114;28;20366;-83
2022/02/24 10:59:04;;;;;;;9.77;1.52;;;15.00;65.10;;;;;;5038308;28;20056;-81
2022/02/24 11:01:30;;;;;;;6.85;1.20;;;15.30;63.40;;;;;;5055627;28;20112;-84
2022/02/24 11:04:02;;;;;;;8.85;1.83;;;15.60;61.30;;;;;;5035935;28;20385;-81
2022/02/24 11:06:33;;;;;;;8.65;1.42;;;15.90;61.20;;;;;;5051773;28;20029;-84
2022/02/24 11:09:00;;;;;;;5.85;1.33;;;16.20;61.20;;;;;;5056198;28;20108;-82
2022/02/24 11:11:34;;;;;;;12.65;1.58;;;16.60;59.60;;;;;;5037870;28;20036;-81
2022/02/24 11:14:02;;;;;;;10.55;1.20;;;16.90;57.80;;;;;;5054013;28;20493;-81
2022/02/24 11:16:29;;;;;;;6.97;1.13;;;17.20;58.10;;;;;;5053733;28;20048;-81
2022/02/24 11:18:58;;;;;;;7.38;1.20;;;17.60;58.20;;;;;;5034811;28;20036;-82
2022/02/24 11:21:25;;;;;;;6.20;1.00;;;17.90;56.80;;;;;;5018041;28;20021;-80
2022/02/24 11:23:52;;;;;;;8.27;1.42;;;18.30;55.90;;;;;;5034935;28;20083;-83
2022/02/24 11:26:21;;;;;;;6.65;0.77;;;18.50;53.60;;;;;;5018600;28;20034;-85
2022/02/24 11:29:24;;;;;;;6.35;0.80;;;18.70;52.40;;;;;;5043416;28;20428;-82
2022/02/24 11:31:59;;;;;;;6.38;1.20;;;18.60;51.80;;;;;;5053381;28;20024;-83
2022/02/24 11:34:54;;;;;;;6.47;0.90;;;18.70;50.20;;;;;;5053240;28;20029;-84
2022/02/24 11:37:29;;;;;;;7.15;1.20;;;18.80;50.50;;;;;;5036654;28;20048;-81
2022/02/24 11:40:01;;;;;;;7.18;1.00;;;18.80;50.40;;;;;;5051836;28;20037;-82
2022/02/24 11:42:29;;;;;;;7.53;0.90;;;18.50;49.80;;;;;;5034600;28;20017;-83
2022/02/24 11:44:55;;;;;;;7.63;1.35;;;18.10;50.40;;;;;;5034107;28;20435;-81
2022/02/24 11:47:22;;;;;;;6.60;0.98;;;17.60;51.10;;;;;;5032388;28;20025;-82
2022/02/24 11:49:54;;;;;;;5.22;0.90;;;17.10;51.50;;;;;;5017392;28;20075;-82
2022/02/24 11:52:31;;;;;;;6.32;1.08;;;16.50;52.30;;;;;;5034021;28;20120;-84
2022/02/24 11:54:58;;;;;;;8.27;0.88;;;15.80;53.50;;;;;;5033088;28;20029;-84
2022/02/24 11:57:31;;;;;;;10.52;1.40;;;15.30;55.00;;;;;;5034422;28;20026;-80
2022/02/24 12:00:00;;;;;;;5.13;0.87;;;14.90;55.90;;;;;;5039785;28;20029;-85
2022/02/24 12:02:43;;;;;;;8.07;1.08;;;14.60;56.40;;;;;;5033275;28;20026;-85
2022/02/24 12:05:21;;;;;;;8.18;0.82;;;14.30;57.40;;;;;;5035212;28;20159;-83
2022/02/24 12:08:01;;;;;;;3.97;0.70;;;14.10;58.90;;;;;;5047428;28;20025;-82
2022/02/24 12:10:41;;;;;;;6.85;1.30;;;14.00;58.80;;;;;;5042131;28;20100;-80
2022/02/24 12:13:23;;;;;;;7.03;0.80;;;14.00;59.60;;;;;;5028128;28;20049;-82
2022/02/24 12:16:12;;;;;;;7.22;0.98;;;14.40;59.80;;;;;;5036749;28;20526;-86
2022/02/24 12:18:38;;;;;;;5.38;0.70;;;15.10;59.80;;;;;;5032987;28;20036;-81
2022/02/24 12:21:30;;;;;;;5.07;0.80;;;15.70;58.90;;;;;;5016556;28;20055;-83
2022/02/24 12:24:00;;;;;;;2.28;0.63;;;16.50;56.90;;;;;;5033508;28;20112;-81
2022/02/24 12:26:46;;;;;;;3.20;0.70;;;17.00;54.80;;;;;;5032891;28;20032;-82
2022/02/24 12:29:37;;;;;;;4.53;0.77;;;17.20;53.80;;;;;;5032573;28;20049;-81
2022/02/24 12:32:05;;;;;;;5.03;0.63;;;17.50;53.50;;;;;;5051695;28;20029;-80
2022/02/24 12:34:32;;;;;;;3.70;0.75;;;17.50;52.80;;;;;;5048946;28;20052;-81
2022/02/24 12:37:17;;;;;;;12.13;0.95;;;17.20;52.30;;;;;;5051972;28;20507;-82
2022/02/24 12:39:43;;;;;;;5.25;0.98;;;16.60;53.00;;;;;;5052326;28;20036;-79
2022/02/24 12:42:11;;;;;;;6.97;0.85;;;16.00;53.50;;;;;;5038884;28;20025;-80
2022/02/24 12:44:38;;;;;;;6.72;0.70;;;15.50;55.10;;;;;;5032111;28;20474;-80
2022/02/24 12:47:05;;;;;;;3.88;0.70;;;15.10;56.40;;;;;;5032056;28;20052;-81
2022/02/24 12:49:51;;;;;;;7.22;0.90;;;14.70;57.30;;;;;;5046629;28;20393;-79